DeKalb Peachtree Airport
KPDK : rendu visible

Aérodrome :











RETROUVEZ-NOUS SUR...

 
LOGIN :

S'inscrire | Disclaimer

   EN    FR    IT 

 









Légende :    VFR   VFR Marginal   IFR   IFR Intensif   IFR Très Intensif
Visi : 
Plafond : 
>= 8 km
>= 3000ft
5 à 8 km
1000 à 3000 ft
1500m à 5 km
500 à 1000 ft
800 à 1500m
200 à 500 ft
< 800m
< 200 ft
Symboles :   Orages  Brouillard  Fortes neiges  Fortes précipitations  Vent > 20 kt







- Altitude de l'aérodrome : 1003 ft


KPDK - DeKalb Peachtree

DERNIER METAR :
  • 241953Z AUTO 20011KT 10SM CLR 27/11 A2995 RMK AO2 SLP130 T02720106

METARs EXPIRÉS :
  • 241853Z 23008KT 10SM CLR 27/11 A2997 RMK AO2 SLP137 T02720111
  • 241753Z 23007KT 10SM CLR 26/11 A3000 RMK AO2 SLP146 T02610111 10267 20156 58016

TAF KPDK
Valide du 24 à 18h jusqu'au 25 à 18h UTC


241723Z 2418/2518 24006KT P6SM FEW250
FM250200 00000KT P6SM FEW250
FM250900 00000KT P6SM BKN250
FM251400 22005KT P6SM BKN250
FIR KZTL / Amérique du Nord



MET'MAP, la Météo Aéronautique d'un coup d'oeil ! - Copyright ORBIFLY Décembre 2007 - Disclaimer

ORBIFLY MET'MAP TEAM :

Programmation & Développement : Alexandra Zaïnal
Conception & Développement : Baudouin d'Aumeries
Co-Programmation & Développement : Marc-Olivier Méhu
Soutien technique & logistique : Manuel Goepfert

Contact : metmap@orbifly.com




SOURCES & CREDITS :

   NOAA       Earth
Advisory